createdAt,value
2017-11-16T00:00:26.570Z,3.00
2017-11-16T00:01:26.604Z,2.00
2017-11-16T00:02:26.557Z,2.00
2017-11-16T00:03:26.485Z,4.00
2017-11-16T00:04:26.542Z,2.00
2017-11-16T00:05:26.621Z,4.00
2017-11-16T00:06:26.565Z,3.00
2017-11-16T00:07:26.523Z,3.00
2017-11-16T00:08:26.588Z,4.00
2017-11-16T00:09:26.611Z,2.00
2017-11-16T00:10:26.623Z,4.00
2017-11-16T00:11:26.624Z,1.00
2017-11-16T00:12:26.556Z,3.00
2017-11-16T00:13:26.560Z,2.00
2017-11-16T00:14:26.626Z,4.00
2017-11-16T00:15:26.560Z,3.00
2017-11-16T00:16:26.565Z,4.00
2017-11-16T00:17:26.627Z,1.00
2017-11-16T00:18:26.560Z,3.00
2017-11-16T00:19:26.561Z,3.00
2017-11-16T00:20:26.628Z,2.00
2017-11-16T00:21:26.629Z,1.00
2017-11-16T00:22:26.568Z,3.00
2017-11-16T00:23:26.630Z,4.00
2017-11-16T00:24:26.574Z,2.00
2017-11-16T00:25:26.632Z,3.00
2017-11-16T00:26:26.570Z,1.00
2017-11-16T00:27:26.633Z,3.00
2017-11-16T00:28:26.566Z,2.00
2017-11-16T00:29:26.641Z,2.00
2017-11-16T00:30:26.519Z,3.00
2017-11-16T00:31:26.590Z,3.00
2017-11-16T00:32:26.555Z,3.00
2017-11-16T00:33:26.548Z,3.00
2017-11-16T00:34:26.559Z,1.00
2017-11-16T00:35:26.573Z,2.00
2017-11-16T00:36:26.635Z,3.00
2017-11-16T00:37:26.506Z,3.00
2017-11-16T00:38:26.628Z,1.00
2017-11-16T00:39:26.552Z,2.00
2017-11-16T00:40:26.581Z,2.00
2017-11-16T00:41:26.640Z,2.00
2017-11-16T00:42:26.576Z,1.00
2017-11-16T00:43:26.645Z,3.00
2017-11-16T00:44:26.574Z,3.00
2017-11-16T00:45:26.648Z,2.00
2017-11-16T00:46:26.577Z,3.00
2017-11-16T00:47:26.645Z,3.00
2017-11-16T00:48:26.667Z,3.00
2017-11-16T00:49:26.652Z,3.00
2017-11-16T00:50:26.575Z,4.00
2017-11-16T00:51:26.646Z,1.00
2017-11-16T00:52:26.650Z,4.00
2017-11-16T00:53:26.633Z,5.00
2017-11-16T00:54:26.585Z,3.00
2017-11-16T00:55:26.648Z,2.00
2017-11-16T00:56:26.586Z,2.00
2017-11-16T00:57:26.651Z,2.00
2017-11-16T00:58:26.585Z,1.00
2017-11-16T00:59:26.583Z,3.00
2017-11-16T01:00:26.638Z,1.00
2017-11-16T01:01:26.554Z,2.00
2017-11-16T01:02:26.638Z,2.00
2017-11-16T01:03:26.562Z,2.00
2017-11-16T01:04:26.653Z,3.00
2017-11-16T01:05:26.646Z,1.00
2017-11-16T01:06:26.650Z,2.00
2017-11-16T01:07:26.589Z,3.00
2017-11-16T01:08:26.613Z,2.00
2017-11-16T01:09:26.640Z,4.00
2017-11-16T01:10:26.581Z,3.00
2017-11-16T01:11:26.610Z,5.00
2017-11-16T01:12:26.615Z,3.00
2017-11-16T01:13:26.530Z,3.00
2017-11-16T01:14:26.547Z,3.00
2017-11-16T01:15:26.547Z,2.00
2017-11-16T01:16:26.593Z,3.00
2017-11-16T01:17:26.599Z,3.00
2017-11-16T01:18:26.588Z,3.00
2017-11-16T01:19:26.623Z,2.00
2017-11-16T01:20:26.528Z,2.00
2017-11-16T01:21:26.606Z,3.00
2017-11-16T01:22:26.605Z,2.00
2017-11-16T01:23:26.661Z,3.00
2017-11-16T01:24:26.651Z,3.00
2017-11-16T01:25:26.655Z,2.00
2017-11-16T01:26:26.662Z,1.00
2017-11-16T01:27:26.657Z,1.00
2017-11-16T01:28:26.528Z,3.00
2017-11-16T01:29:26.573Z,3.00
2017-11-16T01:30:26.652Z,5.00
2017-11-16T01:31:26.539Z,1.00
2017-11-16T01:32:26.647Z,2.00
2017-11-16T01:33:26.538Z,2.00
2017-11-16T01:34:26.661Z,2.00
2017-11-16T01:36:26.622Z,3.00
2017-11-16T01:37:26.632Z,3.00
2017-11-16T01:38:26.657Z,3.00
2017-11-16T01:39:26.629Z,2.00
2017-11-16T01:40:26.637Z,2.00
2017-11-16T01:41:26.675Z,2.00
2017-11-16T01:42:26.614Z,1.00
2017-11-16T01:43:26.678Z,3.00
2017-11-16T01:44:26.610Z,2.00
2017-11-16T01:45:26.678Z,4.00
2017-11-16T01:46:26.617Z,2.00
2017-11-16T01:47:26.615Z,5.00
2017-11-16T01:48:26.682Z,2.00
2017-11-16T01:49:26.682Z,4.00
2017-11-16T01:50:26.593Z,4.00
2017-11-16T01:51:26.605Z,1.00
2017-11-16T01:52:26.676Z,3.00
2017-11-16T01:53:26.570Z,4.00
2017-11-16T01:54:26.597Z,2.00
2017-11-16T01:55:26.680Z,5.00
2017-11-16T01:56:26.671Z,2.00
2017-11-16T01:57:26.673Z,5.00
2017-11-16T01:58:26.626Z,3.00
2017-11-16T01:59:26.643Z,3.00
2017-11-16T02:00:26.621Z,3.00
2017-11-16T02:01:26.689Z,2.00
2017-11-16T02:02:26.689Z,4.00
2017-11-16T02:03:26.626Z,2.00
2017-11-16T02:04:26.690Z,1.00
2017-11-16T02:05:26.623Z,2.00
2017-11-16T02:06:26.692Z,3.00
2017-11-16T02:07:26.627Z,4.00
2017-11-16T02:08:26.673Z,0.00
2017-11-16T02:09:26.628Z,1.00
2017-11-16T02:10:26.684Z,1.00
2017-11-16T02:11:26.564Z,3.00
2017-11-16T02:12:26.684Z,2.00
2017-11-16T02:13:26.562Z,3.00
2017-11-16T02:14:26.601Z,3.00
2017-11-16T02:15:26.636Z,4.00
2017-11-16T02:16:26.608Z,2.00
2017-11-16T02:17:26.606Z,2.00
2017-11-16T02:18:26.574Z,0.00
2017-11-16T02:19:26.652Z,2.00
2017-11-16T02:20:26.634Z,4.00
2017-11-16T02:21:26.699Z,2.00
2017-11-16T02:22:26.587Z,2.00
2017-11-16T02:23:26.637Z,1.00
2017-11-16T02:24:26.700Z,3.00
2017-11-16T02:25:26.661Z,5.00
2017-11-16T02:26:26.703Z,1.00
2017-11-16T02:27:26.704Z,4.00
2017-11-16T02:28:26.704Z,1.00
2017-11-16T02:29:26.665Z,4.00
2017-11-16T02:30:26.657Z,3.00
2017-11-16T02:31:26.639Z,1.00
2017-11-16T02:32:26.697Z,4.00
2017-11-16T02:33:26.647Z,1.00
2017-11-16T02:34:26.593Z,3.00
2017-11-16T02:35:26.696Z,3.00
2017-11-16T02:36:26.659Z,1.00
2017-11-16T02:37:26.589Z,2.00
2017-11-16T02:38:26.703Z,3.00
2017-11-16T02:39:26.593Z,2.00
2017-11-16T02:40:26.576Z,1.00
2017-11-16T02:41:26.647Z,2.00
2017-11-16T02:42:26.648Z,2.00
2017-11-16T02:43:26.580Z,4.00
2017-11-16T02:44:26.669Z,2.00
2017-11-16T02:45:26.605Z,2.00
2017-11-16T02:46:26.576Z,2.00
2017-11-16T02:47:26.697Z,5.00
2017-11-16T02:48:26.599Z,3.00
2017-11-16T02:49:26.588Z,2.00
2017-11-16T02:50:26.666Z,4.00
2017-11-16T02:51:26.643Z,2.00
2017-11-16T02:52:26.664Z,3.00
2017-11-16T02:53:26.665Z,1.00
2017-11-16T02:54:26.577Z,2.00
2017-11-16T02:55:26.659Z,1.00
2017-11-16T02:56:26.668Z,3.00
2017-11-16T02:57:26.636Z,3.00
2017-11-16T02:58:26.619Z,2.00
2017-11-16T02:59:26.631Z,1.00
2017-11-16T03:00:26.717Z,3.00
2017-11-16T03:01:26.629Z,3.00
2017-11-16T03:02:26.746Z,4.00
2017-11-16T03:03:26.610Z,3.00
2017-11-16T03:04:26.708Z,2.00
2017-11-16T03:05:26.715Z,1.00
2017-11-16T03:06:26.735Z,3.00
2017-11-16T03:07:26.595Z,1.00
2017-11-16T03:08:26.723Z,2.00
2017-11-16T03:09:26.719Z,1.00
2017-11-16T03:10:26.596Z,2.00
2017-11-16T03:11:26.624Z,4.00
2017-11-16T03:12:26.622Z,2.00
2017-11-16T03:13:26.684Z,2.00
2017-11-16T03:14:26.705Z,2.00
2017-11-16T03:15:26.603Z,2.00
2017-11-16T03:16:26.662Z,2.00
2017-11-16T03:17:26.659Z,3.00
2017-11-16T03:18:26.715Z,3.00
2017-11-16T03:19:26.622Z,3.00
2017-11-16T03:20:26.658Z,2.00
2017-11-16T03:21:26.731Z,3.00
2017-11-16T03:22:26.699Z,4.00
2017-11-16T03:23:26.689Z,3.00
2017-11-16T03:24:26.645Z,4.00
2017-11-16T03:25:26.659Z,2.00
2017-11-16T03:26:26.671Z,2.00
2017-11-16T03:27:26.698Z,2.00
2017-11-16T03:28:26.727Z,4.00
2017-11-16T03:29:26.698Z,2.00
2017-11-16T03:30:26.730Z,2.00
2017-11-16T03:31:26.644Z,3.00
2017-11-16T03:32:26.732Z,3.00
2017-11-16T03:33:26.694Z,3.00
2017-11-16T03:34:26.629Z,2.00
2017-11-16T03:35:26.620Z,5.00
2017-11-16T03:36:26.665Z,2.00
2017-11-16T03:37:26.755Z,2.00
2017-11-16T03:38:26.745Z,3.00
2017-11-16T03:39:26.653Z,3.00
2017-11-16T03:40:26.688Z,3.00
2017-11-16T03:41:26.718Z,2.00
2017-11-16T03:42:26.700Z,2.00
2017-11-16T03:43:26.648Z,2.00
2017-11-16T03:44:26.684Z,2.00
2017-11-16T03:45:26.735Z,2.00
2017-11-16T03:46:30.989Z,3.00
2017-11-16T03:47:26.608Z,2.00
2017-11-16T03:48:26.713Z,2.00
2017-11-16T03:49:26.685Z,2.00
2017-11-16T03:50:26.613Z,6.00
2017-11-16T03:51:26.818Z,2.00
2017-11-16T03:52:26.705Z,3.00
2017-11-16T03:53:26.661Z,3.00
2017-11-16T03:54:26.670Z,1.00
2017-11-16T03:55:26.668Z,1.00
2017-11-16T03:56:26.623Z,1.00
2017-11-16T03:57:26.748Z,1.00
2017-11-16T03:58:26.746Z,2.00
2017-11-16T03:59:26.685Z,1.00
2017-11-16T04:00:26.688Z,4.00
2017-11-16T04:01:26.621Z,2.00
2017-11-16T04:02:26.697Z,2.00
2017-11-16T04:03:26.714Z,1.00
2017-11-16T04:04:26.669Z,3.00
2017-11-16T04:06:26.666Z,4.00
2017-11-16T04:07:26.751Z,2.00
2017-11-16T04:08:26.755Z,3.00
2017-11-16T04:09:26.698Z,1.00
2017-11-16T04:10:26.663Z,2.00
2017-11-16T04:11:26.735Z,2.00
2017-11-16T04:12:26.756Z,1.00
2017-11-16T04:13:26.675Z,2.00
2017-11-16T04:14:26.673Z,2.00
2017-11-16T04:15:26.757Z,3.00
2017-11-16T04:16:26.685Z,4.00
2017-11-16T04:17:26.724Z,2.00
2017-11-16T04:18:26.676Z,2.00
2017-11-16T04:19:26.718Z,1.00
2017-11-16T04:20:26.708Z,2.00
2017-11-16T04:21:26.708Z,4.00
2017-11-16T04:22:26.778Z,1.00
2017-11-16T04:23:26.710Z,3.00
2017-11-16T04:24:26.705Z,3.00
2017-11-16T04:25:26.777Z,4.00
2017-11-16T04:26:26.708Z,2.00
2017-11-16T04:27:26.781Z,2.00
2017-11-16T04:28:26.775Z,3.00
2017-11-16T04:29:26.781Z,2.00
2017-11-16T04:30:26.715Z,2.00
2017-11-16T04:31:26.720Z,2.00
2017-11-16T04:32:26.778Z,1.00
2017-11-16T04:33:26.738Z,2.00
2017-11-16T04:34:26.781Z,1.00
2017-11-16T04:35:26.715Z,2.00
2017-11-16T04:36:26.785Z,0.00
2017-11-16T04:37:26.719Z,2.00
2017-11-16T04:38:26.783Z,2.00
2017-11-16T04:39:26.714Z,1.00
2017-11-16T04:40:26.714Z,4.00
2017-11-16T04:41:26.722Z,2.00
2017-11-16T04:42:26.733Z,5.00
2017-11-16T04:43:26.653Z,2.00
2017-11-16T04:44:26.718Z,1.00
2017-11-16T04:45:26.656Z,4.00
2017-11-16T04:46:26.716Z,3.00
2017-11-16T04:47:26.717Z,2.00
2017-11-16T04:48:26.719Z,2.00
2017-11-16T04:49:26.655Z,2.00
2017-11-16T04:50:26.750Z,3.00
2017-11-16T04:51:26.800Z,2.00
2017-11-16T04:52:26.730Z,3.00
2017-11-16T04:53:26.791Z,3.00
2017-11-16T04:54:26.726Z,5.00
2017-11-16T04:55:26.793Z,1.00
2017-11-16T04:56:26.727Z,2.00
2017-11-16T04:57:26.798Z,3.00
2017-11-16T04:58:26.728Z,2.00
2017-11-16T04:59:26.724Z,3.00
2017-11-16T05:00:26.798Z,1.00
2017-11-16T05:01:26.823Z,5.00
2017-11-16T05:02:26.732Z,1.00
2017-11-16T05:03:26.811Z,1.00
2017-11-16T05:04:26.733Z,2.00
2017-11-16T05:05:26.819Z,1.00
2017-11-16T05:06:26.804Z,2.00
2017-11-16T05:07:26.733Z,3.00
2017-11-16T05:08:26.801Z,2.00
2017-11-16T05:09:26.734Z,2.00
2017-11-16T05:10:26.803Z,3.00
2017-11-16T05:11:26.809Z,1.00
2017-11-16T05:12:26.811Z,2.00
2017-11-16T05:13:26.872Z,3.00
2017-11-16T05:14:26.805Z,2.00
2017-11-16T05:15:26.741Z,4.00
2017-11-16T05:16:26.741Z,2.00
2017-11-16T05:17:26.745Z,4.00
2017-11-16T05:18:26.806Z,2.00
2017-11-16T05:19:26.741Z,3.00
2017-11-16T05:20:26.743Z,2.00
2017-11-16T05:21:26.749Z,2.00
2017-11-16T05:22:26.744Z,4.00
2017-11-16T05:23:26.756Z,3.00
2017-11-16T05:24:26.748Z,1.00
2017-11-16T05:25:26.815Z,4.00
2017-11-16T05:26:26.746Z,3.00
2017-11-16T05:27:26.815Z,2.00
2017-11-16T05:28:26.750Z,2.00
2017-11-16T05:29:26.813Z,3.00
2017-11-16T05:30:26.749Z,2.00
2017-11-16T05:31:26.746Z,3.00
2017-11-16T05:32:26.764Z,4.00
2017-11-16T05:33:26.799Z,3.00
2017-11-16T05:34:26.720Z,2.00
2017-11-16T05:35:26.754Z,2.00
2017-11-16T05:36:26.738Z,1.00
2017-11-16T05:37:26.810Z,4.00
2017-11-16T05:38:26.725Z,2.00
2017-11-16T05:39:26.703Z,3.00
2017-11-16T05:40:26.773Z,2.00
2017-11-16T05:41:26.822Z,1.00
2017-11-16T05:42:26.752Z,4.00
2017-11-16T05:43:26.821Z,4.00
2017-11-16T05:44:26.756Z,2.00
2017-11-16T05:45:26.757Z,2.00
2017-11-16T05:46:26.833Z,1.00
2017-11-16T05:47:26.758Z,2.00
2017-11-16T05:48:26.825Z,1.00
2017-11-16T05:49:26.765Z,4.00
2017-11-16T05:50:26.830Z,5.00
2017-11-16T05:51:26.824Z,3.00
2017-11-16T05:52:26.814Z,1.00
2017-11-16T05:53:26.764Z,3.00
2017-11-16T05:54:26.695Z,3.00
2017-11-16T05:55:26.782Z,3.00
2017-11-16T05:56:26.696Z,4.00
2017-11-16T05:57:26.759Z,3.00
2017-11-16T05:58:26.733Z,2.00
2017-11-16T05:59:26.696Z,4.00
2017-11-16T06:00:26.718Z,1.00
2017-11-16T06:01:26.769Z,1.00
2017-11-16T06:02:26.772Z,2.00
2017-11-16T06:03:26.718Z,3.00
2017-11-16T06:04:26.769Z,3.00
2017-11-16T06:05:26.769Z,2.00
2017-11-16T06:06:26.839Z,4.00
2017-11-16T06:07:26.920Z,4.00
2017-11-16T06:08:26.836Z,2.00
2017-11-16T06:09:26.787Z,2.00
2017-11-16T06:10:26.771Z,1.00
2017-11-16T06:11:26.800Z,1.00
2017-11-16T06:12:26.780Z,4.00
2017-11-16T06:13:26.760Z,3.00
2017-11-16T06:14:26.708Z,3.00
2017-11-16T06:15:26.728Z,2.00
2017-11-16T06:16:26.780Z,2.00
2017-11-16T06:17:26.839Z,2.00
2017-11-16T06:18:26.796Z,1.00
2017-11-16T06:19:26.724Z,2.00
2017-11-16T06:20:26.777Z,4.00
2017-11-16T06:21:26.851Z,2.00
2017-11-16T06:22:26.844Z,3.00
2017-11-16T06:23:26.779Z,1.00
2017-11-16T06:24:26.847Z,2.00
2017-11-16T06:25:26.849Z,2.00
2017-11-16T06:26:26.790Z,0.00
2017-11-16T06:27:26.848Z,3.00
2017-11-16T06:28:26.786Z,3.00
2017-11-16T06:29:26.789Z,1.00
2017-11-16T06:30:26.788Z,2.00
2017-11-16T06:31:26.734Z,2.00
2017-11-16T06:32:26.842Z,2.00
2017-11-16T06:33:26.840Z,4.00
2017-11-16T06:34:26.761Z,3.00
2017-11-16T06:35:26.762Z,3.00
2017-11-16T06:36:26.759Z,1.00
2017-11-16T06:37:26.764Z,2.00
2017-11-16T06:38:26.814Z,4.00
2017-11-16T06:39:26.791Z,3.00
2017-11-16T06:40:26.738Z,3.00
2017-11-16T06:41:26.857Z,1.00
2017-11-16T06:42:26.795Z,1.00
2017-11-16T06:43:26.859Z,0.00
2017-11-16T06:44:26.821Z,1.00
2017-11-16T06:45:26.749Z,2.00
2017-11-16T06:46:26.794Z,3.00
2017-11-16T06:47:26.887Z,2.00
2017-11-16T06:48:26.861Z,5.00
2017-11-16T06:49:26.802Z,3.00
2017-11-16T06:50:26.861Z,2.00
2017-11-16T06:51:26.799Z,3.00
2017-11-16T06:52:26.864Z,3.00
2017-11-16T06:53:26.818Z,3.00
2017-11-16T06:54:26.865Z,1.00
2017-11-16T06:55:26.798Z,3.00
2017-11-16T06:56:26.866Z,4.00
2017-11-16T06:57:26.801Z,3.00
2017-11-16T06:58:26.871Z,1.00
2017-11-16T06:59:26.804Z,3.00
2017-11-16T07:00:26.877Z,4.00
2017-11-16T07:01:26.784Z,4.00
2017-11-16T07:02:26.854Z,2.00
2017-11-16T07:03:26.860Z,4.00
2017-11-16T07:04:26.859Z,2.00
2017-11-16T07:05:26.868Z,1.00
2017-11-16T07:06:26.772Z,1.00
2017-11-16T07:07:26.741Z,3.00
2017-11-16T07:08:26.745Z,3.00
2017-11-16T07:09:26.773Z,4.00
2017-11-16T07:10:26.760Z,4.00
2017-11-16T07:11:26.807Z,5.00
2017-11-16T07:12:26.837Z,7.00
2017-11-16T07:13:26.829Z,5.00
2017-11-16T07:14:26.738Z,6.00
2017-11-16T07:15:26.777Z,6.00
2017-11-16T07:16:26.840Z,2.00
2017-11-16T07:17:26.772Z,8.00
2017-11-16T07:18:26.827Z,3.00
2017-11-16T07:19:26.833Z,3.00
2017-11-16T07:20:26.748Z,2.00
2017-11-16T07:21:26.817Z,2.00
2017-11-16T07:22:26.882Z,3.00
2017-11-16T07:23:26.818Z,1.00
2017-11-16T07:24:26.884Z,1.00
2017-11-16T07:25:26.954Z,8.00
2017-11-16T07:26:26.825Z,1.00
2017-11-16T07:27:26.885Z,6.00
2017-11-16T07:28:26.819Z,33.00
2017-11-16T07:29:26.853Z,22.00
2017-11-16T07:30:26.888Z,21.00
2017-11-16T07:31:26.889Z,33.00
2017-11-16T07:32:26.823Z,32.00
2017-11-16T07:33:26.910Z,21.00
2017-11-16T07:34:26.914Z,32.00
2017-11-16T07:35:26.893Z,36.00
2017-11-16T07:36:26.832Z,23.00
2017-11-16T07:37:26.896Z,21.00
2017-11-16T07:38:26.831Z,19.00
2017-11-16T07:39:26.893Z,20.00
2017-11-16T07:40:26.830Z,30.00
2017-11-16T07:41:26.785Z,34.00
2017-11-16T07:42:26.851Z,22.00
2017-11-16T07:43:26.782Z,32.00
2017-11-16T07:44:26.834Z,23.00
2017-11-16T07:45:26.848Z,22.00
2017-11-16T07:46:26.763Z,23.00
2017-11-16T07:47:26.823Z,21.00
2017-11-16T07:48:26.875Z,21.00
2017-11-16T07:49:26.834Z,28.00
2017-11-16T07:50:26.877Z,19.00
2017-11-16T07:51:26.898Z,20.00
2017-11-16T07:52:26.836Z,20.00
2017-11-16T07:53:26.853Z,21.00
2017-11-16T07:54:26.906Z,31.00
2017-11-16T07:55:26.844Z,27.00
2017-11-16T07:56:26.906Z,34.00
2017-11-16T07:57:26.847Z,22.00
2017-11-16T07:58:26.905Z,22.00
2017-11-16T07:59:26.838Z,20.00
2017-11-16T08:00:26.904Z,23.00
2017-11-16T08:01:26.912Z,24.00
2017-11-16T08:02:26.904Z,26.00
2017-11-16T08:03:26.840Z,33.00
2017-11-16T08:04:26.913Z,32.00
2017-11-16T08:05:26.909Z,32.00
2017-11-16T08:06:26.849Z,24.00
2017-11-16T08:07:26.909Z,22.00
2017-11-16T08:08:26.872Z,22.00
2017-11-16T08:09:26.908Z,21.00
2017-11-16T08:10:26.910Z,22.00
2017-11-16T08:11:26.910Z,22.00
2017-11-16T08:12:26.846Z,22.00
2017-11-16T08:13:26.917Z,20.00
2017-11-16T08:14:26.840Z,23.00
2017-11-16T08:15:26.848Z,23.00
2017-11-16T08:16:26.914Z,33.00
2017-11-16T08:17:26.845Z,20.00
2017-11-16T08:18:26.916Z,21.00
2017-11-16T08:19:26.922Z,22.00
2017-11-16T08:20:26.917Z,24.00
2017-11-16T08:21:26.849Z,22.00
2017-11-16T08:22:26.928Z,29.00
2017-11-16T08:23:26.851Z,32.00
2017-11-16T08:24:26.927Z,32.00
2017-11-16T08:25:26.854Z,23.00
2017-11-16T08:26:26.919Z,26.00
2017-11-16T08:27:26.859Z,24.00
2017-11-16T08:28:26.923Z,24.00
2017-11-16T08:29:26.856Z,23.00
2017-11-16T08:30:27.059Z,26.00
2017-11-16T08:31:26.921Z,21.00
2017-11-16T08:32:26.855Z,32.00
2017-11-16T08:33:26.924Z,22.00
2017-11-16T08:34:26.856Z,21.00
2017-11-16T08:35:27.061Z,22.00
2017-11-16T08:36:26.866Z,23.00
2017-11-16T08:37:27.064Z,23.00
2017-11-16T08:38:26.860Z,23.00
2017-11-16T08:39:26.928Z,21.00
2017-11-16T08:40:26.860Z,24.00
2017-11-16T08:41:26.853Z,22.00
2017-11-16T08:42:26.883Z,23.00
2017-11-16T08:43:26.863Z,22.00
2017-11-16T08:44:26.828Z,21.00
2017-11-16T08:45:26.880Z,23.00
2017-11-16T08:46:26.797Z,21.00
2017-11-16T08:47:26.895Z,21.00
2017-11-16T08:48:26.823Z,33.00
2017-11-16T08:49:26.885Z,21.00
2017-11-16T08:50:26.916Z,34.00
2017-11-16T08:51:26.903Z,24.00
2017-11-16T08:52:26.869Z,21.00
2017-11-16T08:53:26.949Z,24.00
2017-11-16T08:54:26.875Z,24.00
2017-11-16T08:55:26.938Z,22.00
2017-11-16T08:56:26.939Z,21.00
2017-11-16T08:57:26.876Z,24.00
2017-11-16T08:58:26.942Z,22.00
2017-11-16T08:59:26.878Z,21.00
2017-11-16T09:00:26.941Z,24.00
2017-11-16T09:01:26.877Z,21.00
2017-11-16T09:02:26.942Z,24.00
2017-11-16T09:03:26.875Z,21.00
2017-11-16T09:04:26.904Z,22.00
2017-11-16T09:05:26.947Z,22.00
2017-11-16T09:06:26.886Z,21.00
2017-11-16T09:07:26.943Z,20.00
2017-11-16T09:08:26.878Z,20.00
2017-11-16T09:09:26.951Z,22.00
2017-11-16T09:10:26.880Z,33.00
2017-11-16T09:11:26.837Z,24.00
2017-11-16T09:12:26.913Z,23.00
2017-11-16T09:13:26.804Z,22.00
2017-11-16T09:14:26.877Z,33.00
2017-11-16T09:15:26.877Z,35.00
2017-11-16T09:16:26.910Z,23.00
2017-11-16T09:17:26.905Z,34.00
2017-11-16T09:18:26.931Z,32.00
2017-11-16T09:19:26.879Z,32.00
2017-11-16T09:20:26.930Z,35.00
2017-11-16T09:21:26.888Z,33.00
2017-11-16T09:22:26.888Z,22.00
2017-11-16T09:23:26.908Z,35.00
2017-11-16T09:24:26.953Z,23.00
2017-11-16T09:25:26.891Z,23.00
2017-11-16T09:26:26.958Z,22.00
2017-11-16T09:27:26.885Z,23.00
2017-11-16T09:28:26.960Z,22.00
2017-11-16T09:29:26.888Z,22.00
2017-11-16T09:30:26.958Z,23.00
2017-11-16T09:31:26.896Z,22.00
2017-11-16T09:32:26.887Z,33.00
2017-11-16T09:33:27.046Z,32.00
2017-11-16T09:34:26.961Z,24.00
2017-11-16T09:35:26.896Z,26.00
2017-11-16T09:36:26.893Z,22.00
2017-11-16T09:37:26.965Z,21.00
2017-11-16T09:38:26.893Z,24.00
2017-11-16T09:39:26.964Z,21.00
2017-11-16T09:40:26.899Z,23.00
2017-11-16T09:41:26.965Z,22.00
2017-11-16T09:42:26.942Z,31.00
2017-11-16T09:43:26.899Z,33.00
2017-11-16T09:44:26.965Z,21.00
2017-11-16T09:45:26.905Z,24.00
2017-11-16T09:46:26.905Z,24.00
2017-11-16T09:47:26.973Z,24.00
2017-11-16T09:48:26.899Z,23.00
2017-11-16T09:49:26.977Z,22.00
2017-11-16T09:50:26.925Z,22.00
2017-11-16T09:51:26.969Z,34.00
2017-11-16T09:52:26.901Z,21.00
2017-11-16T09:53:26.971Z,30.00
2017-11-16T09:54:26.899Z,23.00
2017-11-16T09:55:26.973Z,21.00
2017-11-16T09:56:26.973Z,34.00
2017-11-16T09:57:26.902Z,23.00
2017-11-16T09:58:26.975Z,21.00
2017-11-16T09:59:26.976Z,21.00
2017-11-16T10:00:26.908Z,32.00
2017-11-16T10:01:26.864Z,20.00
2017-11-16T10:02:26.910Z,22.00
2017-11-16T10:03:26.975Z,21.00
2017-11-16T10:04:26.908Z,21.00
2017-11-16T10:05:26.980Z,21.00
2017-11-16T10:06:26.907Z,23.00
2017-11-16T10:07:26.909Z,22.00
2017-11-16T10:08:26.911Z,25.00
2017-11-16T10:09:26.917Z,33.00
2017-11-16T10:10:26.982Z,21.00
2017-11-16T10:11:26.931Z,24.00
2017-11-16T10:12:26.887Z,22.00
2017-11-16T10:13:26.960Z,22.00
2017-11-16T10:14:26.888Z,21.00
2017-11-16T10:15:26.890Z,21.00
2017-11-16T10:16:26.927Z,20.00
2017-11-16T10:17:26.985Z,21.00
2017-11-16T10:18:26.974Z,20.00
2017-11-16T10:19:26.917Z,31.00
2017-11-16T10:20:26.988Z,23.00
2017-11-16T10:21:26.989Z,20.00
2017-11-16T10:22:26.925Z,33.00
2017-11-16T10:23:26.989Z,22.00
2017-11-16T10:24:26.917Z,22.00
2017-11-16T10:25:26.997Z,33.00
2017-11-16T10:26:26.918Z,34.00
2017-11-16T10:27:26.992Z,24.00
2017-11-16T10:28:26.920Z,22.00
2017-11-16T10:29:26.994Z,34.00
2017-11-16T10:30:26.934Z,25.00
2017-11-16T10:31:27.003Z,22.00
2017-11-16T10:32:26.942Z,22.00
2017-11-16T10:33:26.893Z,35.00
2017-11-16T10:34:26.849Z,33.00
2017-11-16T10:35:26.891Z,20.00
2017-11-16T10:36:26.897Z,34.00
2017-11-16T10:37:26.896Z,30.00
2017-11-16T10:38:26.947Z,21.00
2017-11-16T10:39:26.897Z,23.00
2017-11-16T10:40:26.942Z,21.00
2017-11-16T10:41:26.893Z,34.00
2017-11-16T10:42:27.002Z,35.00
2017-11-16T10:43:26.931Z,22.00
2017-11-16T10:44:26.933Z,21.00
2017-11-16T10:45:27.002Z,22.00
2017-11-16T10:46:26.932Z,32.00
2017-11-16T10:47:27.010Z,21.00
2017-11-16T10:48:26.930Z,22.00
2017-11-16T10:49:27.014Z,35.00
2017-11-16T10:50:26.941Z,31.00
2017-11-16T10:51:27.007Z,30.00
2017-11-16T10:52:26.939Z,21.00
2017-11-16T10:53:26.947Z,23.00
2017-11-16T10:54:27.011Z,20.00
2017-11-16T10:55:26.939Z,25.00
2017-11-16T10:56:27.023Z,24.00
2017-11-16T10:57:26.945Z,21.00
2017-11-16T10:58:27.011Z,25.00
2017-11-16T10:59:26.945Z,23.00
2017-11-16T11:00:27.014Z,34.00
2017-11-16T11:01:26.978Z,34.00
2017-11-16T11:02:27.042Z,22.00
2017-11-16T11:03:27.015Z,23.00
2017-11-16T11:04:27.048Z,32.00
2017-11-16T11:05:26.950Z,21.00
2017-11-16T11:06:26.948Z,21.00
2017-11-16T11:07:27.021Z,33.00
2017-11-16T11:08:26.951Z,22.00
2017-11-16T11:09:27.021Z,20.00
2017-11-16T11:10:26.954Z,23.00
2017-11-16T11:11:27.021Z,33.00
2017-11-16T11:12:26.954Z,23.00
2017-11-16T11:13:27.020Z,34.00
2017-11-16T11:14:26.953Z,24.00
2017-11-16T11:15:27.022Z,22.00
2017-11-16T11:16:26.953Z,22.00
2017-11-16T11:17:27.023Z,26.00
2017-11-16T11:18:26.951Z,24.00
2017-11-16T11:19:27.023Z,20.00
2017-11-16T11:20:27.027Z,22.00
2017-11-16T11:21:26.957Z,30.00
2017-11-16T11:22:27.025Z,22.00
2017-11-16T11:23:26.957Z,23.00
2017-11-16T11:24:26.905Z,22.00
2017-11-16T11:25:27.028Z,18.00
2017-11-16T11:26:26.969Z,33.00
2017-11-16T11:27:26.963Z,20.00
2017-11-16T11:28:27.057Z,20.00
2017-11-16T11:29:26.961Z,32.00
2017-11-16T11:30:26.915Z,21.00
2017-11-16T11:31:27.031Z,23.00
2017-11-16T11:32:27.032Z,24.00
2017-11-16T11:33:26.963Z,32.00
2017-11-16T11:34:27.033Z,19.00
2017-11-16T11:35:26.963Z,29.00
2017-11-16T11:36:27.046Z,21.00
2017-11-16T11:37:26.963Z,23.00
2017-11-16T11:38:27.036Z,23.00
2017-11-16T11:39:26.962Z,23.00
2017-11-16T11:40:27.036Z,21.00
2017-11-16T11:41:26.963Z,21.00
2017-11-16T11:42:27.038Z,33.00
2017-11-16T11:43:27.097Z,34.00
2017-11-16T11:44:27.038Z,23.00
2017-11-16T11:45:26.972Z,23.00
2017-11-16T11:46:27.038Z,21.00
2017-11-16T11:47:26.970Z,32.00
2017-11-16T11:48:27.046Z,21.00
2017-11-16T11:49:26.982Z,23.00
2017-11-16T11:50:27.067Z,25.00
2017-11-16T11:51:26.979Z,21.00
2017-11-16T11:52:26.898Z,24.00
2017-11-16T11:53:26.985Z,19.00
2017-11-16T11:54:26.947Z,21.00
2017-11-16T11:55:26.988Z,21.00
2017-11-16T11:56:26.932Z,20.00
2017-11-16T11:57:26.995Z,20.00
2017-11-16T11:58:26.950Z,25.00
2017-11-16T11:59:26.991Z,22.00
2017-11-16T12:00:26.941Z,26.00
2017-11-16T12:01:26.944Z,20.00
2017-11-16T12:02:27.053Z,27.00
2017-11-16T12:03:26.985Z,22.00
2017-11-16T12:04:27.052Z,21.00
2017-11-16T12:05:26.990Z,26.00
2017-11-16T12:06:27.053Z,26.00
2017-11-16T12:07:26.989Z,22.00
2017-11-16T12:08:27.055Z,26.00
2017-11-16T12:09:27.053Z,20.00
2017-11-16T12:10:26.985Z,23.00
2017-11-16T12:11:27.062Z,22.00
2017-11-16T12:12:26.989Z,25.00
2017-11-16T12:13:27.061Z,22.00
2017-11-16T12:14:27.065Z,22.00
2017-11-16T12:15:26.989Z,21.00
2017-11-16T12:16:26.988Z,23.00
2017-11-16T12:17:27.061Z,22.00
2017-11-16T12:18:26.990Z,22.00
2017-11-16T12:19:26.945Z,22.00
2017-11-16T12:20:26.989Z,23.00
2017-11-16T12:21:27.062Z,27.00
2017-11-16T12:22:26.989Z,22.00
2017-11-16T12:23:26.996Z,26.00
2017-11-16T12:24:27.062Z,23.00
2017-11-16T12:25:27.002Z,24.00
2017-11-16T12:26:27.083Z,29.00
2017-11-16T12:27:26.998Z,23.00
2017-11-16T12:28:27.066Z,24.00
2017-11-16T12:29:27.070Z,20.00
2017-11-16T12:30:26.999Z,21.00
2017-11-16T12:31:27.070Z,23.00
2017-11-16T12:32:27.067Z,22.00
2017-11-16T12:33:27.001Z,23.00
2017-11-16T12:34:27.072Z,35.00
2017-11-16T12:35:27.071Z,23.00
2017-11-16T12:36:27.016Z,25.00
2017-11-16T12:37:27.072Z,21.00
2017-11-16T12:38:27.006Z,33.00
2017-11-16T12:39:27.072Z,22.00
2017-11-16T12:40:27.004Z,30.00
2017-11-16T12:41:27.224Z,21.00
2017-11-16T12:42:27.097Z,25.00
2017-11-16T12:43:27.074Z,22.00
2017-11-16T12:44:27.074Z,22.00
2017-11-16T12:45:27.007Z,33.00
2017-11-16T12:46:27.077Z,27.00
2017-11-16T12:47:27.038Z,21.00
2017-11-16T12:48:27.080Z,26.00
2017-11-16T12:49:27.011Z,22.00
2017-11-16T12:50:27.079Z,21.00
2017-11-16T12:51:27.016Z,35.00
2017-11-16T12:52:27.081Z,34.00
2017-11-16T12:53:27.013Z,30.00
2017-11-16T12:54:27.080Z,23.00
2017-11-16T12:55:27.082Z,24.00
2017-11-16T12:56:27.008Z,31.00
2017-11-16T12:57:27.084Z,21.00
2017-11-16T12:58:27.014Z,23.00
2017-11-16T12:59:26.963Z,21.00
2017-11-16T13:00:27.020Z,33.00
2017-11-16T13:01:27.085Z,36.00
2017-11-16T13:02:27.106Z,22.00
2017-11-16T13:03:27.014Z,32.00
2017-11-16T13:04:27.086Z,21.00
2017-11-16T13:05:27.088Z,32.00
2017-11-16T13:06:27.020Z,23.00
2017-11-16T13:07:27.091Z,34.00
2017-11-16T13:08:27.044Z,19.00
2017-11-16T13:09:27.091Z,22.00